createdAt,value
2018-06-03T00:02:22.051Z,22.40
2018-06-03T00:04:50.279Z,23.47
2018-06-03T00:07:18.804Z,21.80
2018-06-03T00:09:47.359Z,22.50
2018-06-03T00:12:15.870Z,23.43
2018-06-03T00:14:44.152Z,23.03
2018-06-03T00:17:12.638Z,22.07
2018-06-03T00:19:40.919Z,21.60
2018-06-03T00:22:10.235Z,23.47
2018-06-03T00:24:38.789Z,23.80
2018-06-03T00:27:07.011Z,25.60
2018-06-03T00:29:35.548Z,25.07
2018-06-03T00:32:03.785Z,21.30
2018-06-03T00:34:32.308Z,23.23
2018-06-03T00:37:02.149Z,19.70
2018-06-03T00:39:31.775Z,21.53
2018-06-03T00:42:01.326Z,22.00
2018-06-03T00:44:31.367Z,22.03
2018-06-03T00:47:01.073Z,24.97
2018-06-03T00:49:30.239Z,21.63
2018-06-03T00:51:59.214Z,22.67
2018-06-03T00:54:27.804Z,21.73
2018-06-03T00:57:15.257Z,22.63
2018-06-03T00:59:43.518Z,22.13
2018-06-03T01:02:12.068Z,22.40
2018-06-03T01:04:40.582Z,21.70
2018-06-03T01:07:09.141Z,23.00
2018-06-03T01:09:37.637Z,23.40
2018-06-03T01:12:06.196Z,24.20
2018-06-03T01:14:34.726Z,23.13
2018-06-03T01:17:03.287Z,22.07
2018-06-03T01:19:31.795Z,24.23
2018-06-03T01:22:01.453Z,24.63
2018-06-03T01:24:36.472Z,23.53
2018-06-03T01:27:05.027Z,23.40
2018-06-03T01:29:33.583Z,23.43
2018-06-03T01:32:02.146Z,23.43
2018-06-03T01:34:31.857Z,23.57
2018-06-03T01:37:01.386Z,22.57
2018-06-03T01:39:31.269Z,25.07
2018-06-03T01:42:00.469Z,22.70
2018-06-03T01:44:30.007Z,22.60
2018-06-03T01:46:59.201Z,25.83
2018-06-03T01:49:27.684Z,21.90
2018-06-03T01:51:56.261Z,23.03
2018-06-03T01:54:24.804Z,22.37
2018-06-03T01:56:53.366Z,25.03
2018-06-03T01:59:21.877Z,23.50
2018-06-03T02:01:50.476Z,25.20
2018-06-03T02:04:18.986Z,22.73
2018-06-03T02:06:47.254Z,24.17
2018-06-03T02:09:15.756Z,24.00
2018-06-03T02:11:44.299Z,22.50
2018-06-03T02:14:12.865Z,21.27
2018-06-03T02:16:41.406Z,23.50
2018-06-03T02:19:09.921Z,23.70
2018-06-03T02:21:38.451Z,23.30
2018-06-03T02:24:06.996Z,23.63
2018-06-03T02:26:35.548Z,21.87
2018-06-03T02:29:04.074Z,22.50
2018-06-03T02:31:32.577Z,23.00
2018-06-03T02:34:02.033Z,21.67
2018-06-03T02:36:31.603Z,26.13
2018-06-03T02:39:00.216Z,21.70
2018-06-03T02:41:29.231Z,26.30
2018-06-03T02:43:57.834Z,22.30
2018-06-03T02:46:26.316Z,23.10
2018-06-03T02:48:54.855Z,24.90
2018-06-03T02:51:23.406Z,22.83
2018-06-03T02:53:51.694Z,23.47
2018-06-03T02:56:20.204Z,22.60
2018-06-03T02:58:48.721Z,22.30
2018-06-03T03:01:17.004Z,21.20
2018-06-03T03:03:45.516Z,21.20
2018-06-03T03:06:14.071Z,22.03
2018-06-03T03:08:42.560Z,21.97
2018-06-03T03:11:10.809Z,21.33
2018-06-03T03:13:39.311Z,22.00
2018-06-03T03:16:07.579Z,21.33
2018-06-03T03:18:36.068Z,22.33
2018-06-03T03:21:04.330Z,22.70
2018-06-03T03:23:32.830Z,20.50
2018-06-03T03:26:02.332Z,20.63
2018-06-03T03:28:31.713Z,21.13
2018-06-03T03:31:01.212Z,22.23
2018-06-03T03:33:30.195Z,22.03
2018-06-03T03:35:59.189Z,21.80
2018-06-03T03:38:27.736Z,22.10
2018-06-03T03:40:56.256Z,24.40
2018-06-03T03:43:24.843Z,24.63
2018-06-03T03:45:53.403Z,23.37
2018-06-03T03:48:21.893Z,25.70
2018-06-03T03:50:50.470Z,23.73
2018-06-03T03:53:19.268Z,23.83
2018-06-03T03:55:47.752Z,23.03
2018-06-03T03:58:16.443Z,22.40
2018-06-03T04:00:44.934Z,24.83
2018-06-03T04:03:13.483Z,22.80
2018-06-03T04:05:41.981Z,25.37
2018-06-03T04:08:10.547Z,26.43
2018-06-03T04:10:39.118Z,24.50
2018-06-03T04:13:07.659Z,25.37
2018-06-03T04:15:36.156Z,25.37
2018-06-03T04:18:04.779Z,27.50
2018-06-03T04:20:33.321Z,25.03
2018-06-03T04:23:01.542Z,24.37
2018-06-03T04:25:31.360Z,23.80
2018-06-03T04:28:00.547Z,24.17
2018-06-03T04:30:29.958Z,23.60
2018-06-03T04:32:59.269Z,24.00
2018-06-03T04:35:27.831Z,25.00
2018-06-03T04:37:56.368Z,24.33
2018-06-03T04:40:24.603Z,26.27
2018-06-03T04:42:53.175Z,27.63
2018-06-03T04:45:21.712Z,25.40
2018-06-03T04:47:50.203Z,28.30
2018-06-03T04:50:18.733Z,28.57
2018-06-03T04:52:47.228Z,28.80
2018-06-03T04:55:15.780Z,26.60
2018-06-03T04:57:44.308Z,27.40
2018-06-03T05:00:12.601Z,26.87
2018-06-03T05:02:41.094Z,28.47
2018-06-03T05:05:09.641Z,25.70
2018-06-03T05:07:38.136Z,28.90
2018-06-03T05:10:06.410Z,27.10
2018-06-03T05:12:34.928Z,27.17
2018-06-03T05:15:03.477Z,27.70
2018-06-03T05:17:31.735Z,27.60
2018-06-03T05:20:01.475Z,28.57
2018-06-03T05:22:31.119Z,27.77
2018-06-03T05:25:00.192Z,30.20
2018-06-03T05:27:28.871Z,29.70
2018-06-03T05:29:57.492Z,30.63
2018-06-03T05:32:26.831Z,31.63
2018-06-03T05:34:55.352Z,31.57
2018-06-03T05:37:23.854Z,30.40
2018-06-03T05:39:52.723Z,31.40
2018-06-03T05:42:21.219Z,30.67
2018-06-03T05:44:49.794Z,31.30
2018-06-03T05:47:18.314Z,30.03
2018-06-03T05:49:46.859Z,30.13
2018-06-03T05:52:15.350Z,31.43
2018-06-03T05:54:44.020Z,31.43
2018-06-03T05:57:12.540Z,32.37
2018-06-03T05:59:41.084Z,28.50
2018-06-03T06:02:09.591Z,31.33
2018-06-03T06:04:38.130Z,29.67
2018-06-03T06:07:06.653Z,29.37
2018-06-03T06:09:35.350Z,29.40
2018-06-03T06:12:03.902Z,26.23
2018-06-03T06:14:32.665Z,26.57
2018-06-03T06:17:01.968Z,23.73
2018-06-03T06:19:31.092Z,24.77
2018-06-03T06:22:00.209Z,26.43
2018-06-03T06:24:29.139Z,26.97
2018-06-03T06:26:57.451Z,24.53
2018-06-03T06:29:26.097Z,27.13
2018-06-03T06:31:54.619Z,29.17
2018-06-03T06:34:23.197Z,26.60
2018-06-03T06:36:51.785Z,25.30
2018-06-03T06:39:20.378Z,27.17
2018-06-03T06:41:49.057Z,26.83
2018-06-03T06:44:17.638Z,25.87
2018-06-03T06:46:46.261Z,26.20
2018-06-03T06:49:14.857Z,25.33
2018-06-03T06:51:43.161Z,23.97
2018-06-03T06:54:11.779Z,23.57
2018-06-03T06:56:40.439Z,23.90
2018-06-03T06:59:09.002Z,23.40
2018-06-03T07:01:37.546Z,22.27
2018-06-03T07:04:06.157Z,19.37
2018-06-03T07:06:34.453Z,21.73
2018-06-03T07:09:02.729Z,22.93
2018-06-03T07:11:32.058Z,22.20
2018-06-03T07:14:01.384Z,23.93
2018-06-03T07:16:30.604Z,20.00
2018-06-03T07:18:59.724Z,22.83
2018-06-03T07:21:28.293Z,21.73
2018-06-03T07:23:56.642Z,21.60
2018-06-03T07:26:29.924Z,22.00
2018-06-03T07:28:59.226Z,19.57
2018-06-03T07:31:27.939Z,20.33
2018-06-03T07:33:56.898Z,19.63
2018-06-03T07:36:26.475Z,20.77
2018-06-03T07:39:00.874Z,19.90
2018-06-03T07:41:34.169Z,18.33
2018-06-03T07:44:18.573Z,19.43
2018-06-03T07:46:48.530Z,17.70
2018-06-03T07:49:17.232Z,18.90
2018-06-03T07:51:45.862Z,16.83
2018-06-03T07:54:14.494Z,18.43
2018-06-03T07:56:43.440Z,20.67
2018-06-03T07:59:16.201Z,18.93
2018-06-03T08:01:47.907Z,19.13
2018-06-03T08:04:19.328Z,20.63
2018-06-03T08:06:48.090Z,19.50
2018-06-03T08:09:16.902Z,20.30
2018-06-03T08:11:49.860Z,19.43
2018-06-03T08:14:19.014Z,17.60
2018-06-03T08:17:05.137Z,16.20
2018-06-03T08:19:37.429Z,16.80
2018-06-03T08:22:06.715Z,16.07
2018-06-03T08:24:46.717Z,16.20
2018-06-03T08:27:28.187Z,14.73
2018-06-03T08:30:01.267Z,15.53
2018-06-03T08:32:30.807Z,13.37
2018-06-03T08:35:03.753Z,13.67
2018-06-03T08:37:32.896Z,15.03
2018-06-03T08:40:02.657Z,14.97
2018-06-03T08:42:32.125Z,15.20
2018-06-03T08:45:01.066Z,13.53
2018-06-03T08:47:34.731Z,15.60
2018-06-03T08:50:11.318Z,14.87
2018-06-03T08:52:46.393Z,16.43
2018-06-03T08:55:23.105Z,15.93
2018-06-03T08:57:52.369Z,17.13
2018-06-03T09:00:20.973Z,17.60
2018-06-03T09:02:49.391Z,16.90
2018-06-03T09:05:18.183Z,18.50
2018-06-03T09:07:46.846Z,18.30
2018-06-03T09:10:19.991Z,17.20
2018-06-03T09:12:51.367Z,17.73
2018-06-03T09:15:31.329Z,19.83
2018-06-03T09:18:02.482Z,18.07
2018-06-03T09:20:32.107Z,21.63
2018-06-03T09:23:03.003Z,19.43
2018-06-03T09:25:32.710Z,20.07
2018-06-03T09:28:01.621Z,19.30
2018-06-03T09:30:32.380Z,18.13
2018-06-03T09:33:13.484Z,18.33
2018-06-03T09:35:44.464Z,16.40
2018-06-03T09:38:13.741Z,16.37
2018-06-03T09:40:42.873Z,16.47
2018-06-03T09:43:14.738Z,15.87
2018-06-03T09:45:43.526Z,15.77
2018-06-03T09:48:12.565Z,16.83
2018-06-03T09:50:58.636Z,16.93
2018-06-03T09:53:28.425Z,15.47
2018-06-03T09:55:57.190Z,15.67
2018-06-03T09:58:25.837Z,15.47
2018-06-03T10:00:55.932Z,17.87
2018-06-03T10:03:25.222Z,18.43
2018-06-03T10:05:55.994Z,16.53
2018-06-03T10:08:49.394Z,16.07
2018-06-03T10:11:19.135Z,17.77
2018-06-03T10:14:06.474Z,17.37
2018-06-03T10:16:46.138Z,16.57
2018-06-03T10:19:30.331Z,17.17
2018-06-03T10:22:02.090Z,15.67
2018-06-03T10:24:33.307Z,15.00
2018-06-03T10:27:02.402Z,15.40
2018-06-03T10:29:44.741Z,15.30
2018-06-03T10:32:13.483Z,13.17
2018-06-03T10:34:42.331Z,13.40
2018-06-03T10:37:11.244Z,11.73
2018-06-03T10:39:39.945Z,11.87
2018-06-03T10:42:08.681Z,10.73
2018-06-03T10:44:37.441Z,9.00
2018-06-03T10:47:06.177Z,9.10
2018-06-03T10:49:35.227Z,8.67
2018-06-03T10:52:04.049Z,8.73
2018-06-03T10:54:32.732Z,9.07
2018-06-03T10:57:02.071Z,8.63
2018-06-03T10:59:33.945Z,9.10
2018-06-03T11:02:02.666Z,8.37
2018-06-03T11:04:33.623Z,8.33
2018-06-03T11:07:03.171Z,8.10
2018-06-03T11:09:34.457Z,8.60
2018-06-03T11:12:04.460Z,8.60
2018-06-03T11:14:35.731Z,8.10
2018-06-03T11:17:04.397Z,9.53
2018-06-03T11:19:33.070Z,8.80
2018-06-03T11:22:03.686Z,8.67
2018-06-03T11:24:32.188Z,8.77
2018-06-03T11:27:02.366Z,9.23
2018-06-03T11:29:31.874Z,9.43
2018-06-03T11:32:01.062Z,9.37
2018-06-03T11:34:30.827Z,9.60
2018-06-03T11:37:01.279Z,9.77
2018-06-03T11:39:30.291Z,8.83
2018-06-03T11:51:08.411Z,10.23
2018-06-03T11:53:37.090Z,10.50
2018-06-03T11:56:05.486Z,9.30
2018-06-03T11:58:45.355Z,10.63
2018-06-03T12:01:14.364Z,11.40
2018-06-03T12:03:43.913Z,10.67
2018-06-03T12:06:12.426Z,10.80
2018-06-03T12:08:41.171Z,10.90
2018-06-03T12:11:10.047Z,10.13
2018-06-03T12:13:39.938Z,11.37
2018-06-03T12:16:08.445Z,11.20
2018-06-03T12:18:38.397Z,11.10
2018-06-03T12:21:09.231Z,11.03
2018-06-03T12:23:39.291Z,11.20
2018-06-03T12:26:08.062Z,11.23
2018-06-03T12:28:49.009Z,11.20
2018-06-03T12:31:18.230Z,11.10
2018-06-03T12:33:46.884Z,10.10
2018-06-03T12:36:15.946Z,11.37
2018-06-03T12:38:44.895Z,10.20
2018-06-03T12:41:13.582Z,11.17
2018-06-03T12:43:42.330Z,11.40
2018-06-03T12:46:10.640Z,10.33
2018-06-03T12:48:39.739Z,9.83
2018-06-03T12:51:08.354Z,9.60
2018-06-03T12:53:36.994Z,9.53
2018-06-03T12:56:05.692Z,9.07
2018-06-03T12:58:46.221Z,9.17
2018-06-03T13:01:15.149Z,8.97
2018-06-03T13:03:43.757Z,8.43
2018-06-03T13:06:12.430Z,8.60
2018-06-03T13:08:41.187Z,8.40
2018-06-03T13:11:11.670Z,8.90
2018-06-03T13:13:40.287Z,9.30
2018-06-03T13:16:08.576Z,8.93
2018-06-03T13:18:37.191Z,8.40
2018-06-03T13:21:06.360Z,7.87
2018-06-03T13:23:35.965Z,9.30
2018-06-03T13:26:05.061Z,8.97
2018-06-03T13:28:36.723Z,9.30
2018-06-03T13:31:05.947Z,8.30
2018-06-03T13:33:34.564Z,8.03
2018-06-03T13:36:03.144Z,8.30
2018-06-03T13:38:31.828Z,8.80
2018-06-03T13:41:02.392Z,8.95
2018-06-03T13:43:32.361Z,9.20
2018-06-03T13:46:01.097Z,9.50
2018-06-03T13:48:29.722Z,10.40
2018-06-03T13:50:58.418Z,10.37
2018-06-03T13:53:27.164Z,9.87
2018-06-03T13:55:55.735Z,9.07
2018-06-03T13:58:24.418Z,9.23
2018-06-03T14:00:53.175Z,9.07
2018-06-03T14:03:21.897Z,8.80
2018-06-03T14:05:50.492Z,8.63
2018-06-03T14:08:19.193Z,9.83
2018-06-03T14:10:47.860Z,9.30
2018-06-03T14:13:16.500Z,8.97
2018-06-03T14:15:45.328Z,8.45
2018-06-03T14:18:14.141Z,8.73
2018-06-03T14:20:42.940Z,8.10
2018-06-03T14:23:11.678Z,8.97
2018-06-03T14:26:00.418Z,9.07
2018-06-03T14:28:29.789Z,8.30
2018-06-03T14:30:58.411Z,8.67
2018-06-03T14:33:27.035Z,8.97
2018-06-03T14:35:55.702Z,7.73
2018-06-03T14:38:24.265Z,7.50
2018-06-03T14:40:53.682Z,7.20
2018-06-03T14:43:22.227Z,10.10
2018-06-03T14:45:51.138Z,8.35
2018-06-03T14:48:20.326Z,7.72
2018-06-03T14:50:49.079Z,8.53
2018-06-03T14:53:17.599Z,9.73
2018-06-03T14:55:46.428Z,10.48
2018-06-03T14:58:16.112Z,9.68
2018-06-03T15:00:44.559Z,9.25
2018-06-03T15:03:13.197Z,9.03
2018-06-03T15:05:41.877Z,7.83
2018-06-03T15:08:10.984Z,7.60
2018-06-03T15:10:39.579Z,8.45
2018-06-03T15:13:08.021Z,8.43
2018-06-03T15:15:36.814Z,12.00
2018-06-03T15:18:06.678Z,8.75
2018-06-03T15:20:35.388Z,7.97
2018-06-03T15:23:04.224Z,8.70
2018-06-03T15:25:32.905Z,10.03
2018-06-03T15:28:01.896Z,10.80
2018-06-03T15:30:31.120Z,9.30
2018-06-03T15:32:59.956Z,9.83
2018-06-03T15:35:28.307Z,9.87
2018-06-03T15:37:56.999Z,9.53
2018-06-03T15:40:25.781Z,11.00
2018-06-03T15:42:54.195Z,34.90
2018-06-03T15:45:24.752Z,13.87
2018-06-03T15:47:53.530Z,9.97
2018-06-03T15:50:22.175Z,11.10
2018-06-03T15:52:55.050Z,10.43
2018-06-03T15:55:24.761Z,10.50
2018-06-03T15:57:53.415Z,10.72
2018-06-03T16:00:22.367Z,10.37
2018-06-03T16:02:50.799Z,11.97
2018-06-03T16:05:19.687Z,11.03
2018-06-03T16:07:49.294Z,10.63
2018-06-03T16:10:18.021Z,10.30
2018-06-03T16:12:46.638Z,10.13
2018-06-03T16:15:14.966Z,10.77
2018-06-03T16:17:43.521Z,10.07
2018-06-03T16:20:12.244Z,10.47
2018-06-03T16:22:40.828Z,10.97
2018-06-03T16:25:09.548Z,11.00
2018-06-03T16:27:37.862Z,9.97
2018-06-03T16:30:06.521Z,10.90
2018-06-03T16:32:35.299Z,11.33
2018-06-03T16:35:03.642Z,11.13
2018-06-03T16:37:32.257Z,10.63
2018-06-03T16:40:01.472Z,10.60
2018-06-03T16:42:30.803Z,10.73
2018-06-03T16:44:59.463Z,10.63
2018-06-03T16:47:28.125Z,12.67
2018-06-03T16:49:56.904Z,12.57
2018-06-03T16:52:25.287Z,10.83
2018-06-03T16:54:53.918Z,10.67
2018-06-03T16:57:22.537Z,9.77
2018-06-03T16:59:50.916Z,10.80
2018-06-03T17:02:19.496Z,10.33
2018-06-03T17:04:48.250Z,11.23
2018-06-03T17:07:17.776Z,10.23
2018-06-03T17:09:46.499Z,9.80
2018-06-03T17:12:15.277Z,10.70
2018-06-03T17:14:43.572Z,10.00
2018-06-03T17:17:12.315Z,10.47
2018-06-03T17:19:40.985Z,10.57
2018-06-03T17:22:09.578Z,11.03
2018-06-03T17:24:38.271Z,11.03
2018-06-03T17:27:06.890Z,11.57
2018-06-03T17:29:35.667Z,11.00
2018-06-03T17:32:04.337Z,11.50
2018-06-03T17:34:32.973Z,12.73
2018-06-03T17:37:01.615Z,11.43
2018-06-03T17:39:30.471Z,11.20
2018-06-03T17:41:59.122Z,12.43
2018-06-03T17:44:27.772Z,11.33
2018-06-03T17:46:56.468Z,10.13
2018-06-03T17:49:25.250Z,12.47
2018-06-03T17:51:53.608Z,11.83
2018-06-03T17:54:22.716Z,12.67
2018-06-03T17:56:51.169Z,10.70
2018-06-03T17:59:20.035Z,11.30
2018-06-03T18:01:48.786Z,11.37
2018-06-03T18:04:17.178Z,10.53
2018-06-03T18:06:45.811Z,12.53
2018-06-03T18:09:14.422Z,10.83
2018-06-03T18:11:42.765Z,11.03
2018-06-03T18:14:11.538Z,12.30
2018-06-03T18:16:41.865Z,11.53
2018-06-03T18:19:11.103Z,11.63
2018-06-03T18:21:39.426Z,10.60
2018-06-03T18:24:08.201Z,12.53
2018-06-03T18:26:38.104Z,11.43
2018-06-03T18:29:07.188Z,12.40
2018-06-03T18:31:35.935Z,11.57
2018-06-03T18:34:04.605Z,11.63
2018-06-03T18:36:33.213Z,11.03
2018-06-03T18:39:02.180Z,10.40
2018-06-03T18:41:30.837Z,11.60
2018-06-03T18:43:59.894Z,11.10
2018-06-03T18:46:29.001Z,11.80
2018-06-03T18:48:57.402Z,12.47
2018-06-03T18:51:26.144Z,11.43
2018-06-03T18:53:54.991Z,10.47
2018-06-03T18:56:23.873Z,12.33
2018-06-03T18:58:52.563Z,11.10
2018-06-03T19:01:21.382Z,12.10
2018-06-03T19:03:50.112Z,12.80
2018-06-03T19:06:18.578Z,12.57
2018-06-03T19:08:47.259Z,12.73
2018-06-03T19:11:15.943Z,13.23
2018-06-03T19:13:44.671Z,14.53
2018-06-03T19:16:13.404Z,13.27
2018-06-03T19:18:42.199Z,13.30
2018-06-03T19:21:10.935Z,13.43
2018-06-03T19:23:39.752Z,10.87
2018-06-03T19:26:08.572Z,14.13
2018-06-03T19:28:37.663Z,13.20
2018-06-03T19:31:06.406Z,13.67
2018-06-03T19:33:35.637Z,14.40
2018-06-03T19:36:05.353Z,13.73
2018-06-03T19:38:57.111Z,13.67
2018-06-03T19:41:27.241Z,13.87
2018-06-03T19:43:56.275Z,14.43
2018-06-03T19:46:27.888Z,14.37
2018-06-03T19:48:57.510Z,14.93
2018-06-03T19:51:26.705Z,16.07
2018-06-03T19:53:56.201Z,14.87
2018-06-03T19:56:25.459Z,18.10
2018-06-03T19:58:54.660Z,14.67
2018-06-03T20:01:23.322Z,13.93
2018-06-03T20:03:54.353Z,15.43
2018-06-03T20:06:27.176Z,16.30
2018-06-03T20:08:56.584Z,15.10
2018-06-03T20:11:25.264Z,15.43
2018-06-03T20:13:54.832Z,15.87
2018-06-03T20:16:23.987Z,14.73
2018-06-03T20:18:53.797Z,15.53
2018-06-03T20:21:23.614Z,16.53
2018-06-03T20:23:52.920Z,16.03
2018-06-03T20:26:22.748Z,15.07
2018-06-03T20:28:56.649Z,16.83
2018-06-03T20:31:26.138Z,16.97
2018-06-03T20:33:55.739Z,16.10
2018-06-03T20:36:25.158Z,16.77
2018-06-03T20:38:54.024Z,16.30
2018-06-03T20:41:22.998Z,15.63
2018-06-03T20:43:51.955Z,13.97
2018-06-03T20:46:20.886Z,16.13
2018-06-03T20:48:50.024Z,15.53
2018-06-03T20:51:19.430Z,15.00
2018-06-03T20:53:48.528Z,15.50
2018-06-03T20:56:17.775Z,16.60
2018-06-03T20:58:47.220Z,17.37
2018-06-03T21:01:16.412Z,19.23
2018-06-03T21:03:45.564Z,17.53
2018-06-03T21:06:14.502Z,15.73
2018-06-03T21:08:43.622Z,18.00
2018-06-03T21:11:13.046Z,18.37
2018-06-03T21:13:41.797Z,17.63
2018-06-03T21:16:11.588Z,14.73
2018-06-03T21:18:40.998Z,18.33
2018-06-03T21:21:10.095Z,16.13
2018-06-03T21:23:39.306Z,18.87
2018-06-03T21:26:08.231Z,18.00
2018-06-03T21:28:37.548Z,18.40
2018-06-03T21:31:07.010Z,19.80
2018-06-03T21:33:36.237Z,17.77
2018-06-03T21:36:05.966Z,19.47
2018-06-03T21:38:34.484Z,17.70
2018-06-03T21:41:03.052Z,20.37
2018-06-03T21:43:31.282Z,18.87
2018-06-03T21:45:59.840Z,19.17
2018-06-03T21:48:28.416Z,18.10
2018-06-03T21:50:56.974Z,19.07
2018-06-03T21:53:25.269Z,19.17
2018-06-03T21:55:53.764Z,20.57
2018-06-03T21:58:22.329Z,20.87
2018-06-03T22:00:50.849Z,20.03
2018-06-03T22:03:19.415Z,19.27
2018-06-03T22:05:51.394Z,18.93
2018-06-03T22:08:21.485Z,18.50
2018-06-03T22:10:49.967Z,18.53
2018-06-03T22:13:18.531Z,19.53
2018-06-03T22:15:47.045Z,20.30
2018-06-03T22:18:15.528Z,16.37
2018-06-03T22:20:44.099Z,17.87
2018-06-03T22:23:12.647Z,20.63
2018-06-03T22:25:40.914Z,19.47
2018-06-03T22:28:09.414Z,21.60
2018-06-03T22:30:37.971Z,20.63
2018-06-03T22:33:06.488Z,18.43
2018-06-03T22:35:35.031Z,20.43
2018-06-03T22:38:03.527Z,19.57
2018-06-03T22:40:32.076Z,21.10
2018-06-03T22:43:01.119Z,18.63
2018-06-03T22:45:29.633Z,18.97
2018-06-03T22:47:58.276Z,16.40
2018-06-03T22:50:26.495Z,18.73
2018-06-03T22:52:55.049Z,19.57
2018-06-03T22:55:23.549Z,19.83
2018-06-03T22:57:53.120Z,19.97
2018-06-03T23:00:30.583Z,18.57
2018-06-03T23:03:04.434Z,18.90
2018-06-03T23:05:32.967Z,18.57
2018-06-03T23:08:01.591Z,17.30
2018-06-03T23:10:30.096Z,19.53
2018-06-03T23:12:58.699Z,18.13
2018-06-03T23:15:27.228Z,19.70
2018-06-03T23:17:55.760Z,18.33
2018-06-03T23:20:24.270Z,17.53
2018-06-03T23:22:52.828Z,18.43
2018-06-03T23:25:21.347Z,17.57
2018-06-03T23:27:49.891Z,17.13
2018-06-03T23:30:18.392Z,18.57
2018-06-03T23:32:46.955Z,18.20
2018-06-03T23:35:15.459Z,18.23
2018-06-03T23:37:43.976Z,19.60
2018-06-03T23:40:12.536Z,17.33
2018-06-03T23:42:41.042Z,14.10
2018-06-03T23:45:09.604Z,15.80
2018-06-03T23:47:38.095Z,17.53
2018-06-03T23:50:06.378Z,18.40
2018-06-03T23:52:34.607Z,18.13
2018-06-03T23:55:03.127Z,14.73
2018-06-03T23:57:31.370Z,19.37
2018-06-03T23:59:59.915Z,19.10
